Portada
METAR-TAF:

METAR-TAF

Aeroports :

Aeroport Internacional de Cardiff

Cardiff, Gal·les

latitud: 51-24N, longitud: 003-21W, altitud: 67 m

Observació

L'informe es va fer fa 27 minuts, a les 06:50 UTC
Vent 5 kt del Nord, variant entre Nord/Nord-Oest i Nord-Est
Temperatura 11°C
Humitat 76%
Pressió 1022 hPa
Visibilitat 10 km o més

METAR: EGFF 220650Z AUTO 01005KT 340V050 9999 NCD 11/07 Q1022

Hora: 08:17 (07:17 UTC)

Pronòstic

L'informe es va fer fa 2 hores i 19 minuts, a les 04:58 UTC
Pronòstic vàlid del 22 a les 06 UTC al 23 a les 06 UTC
Vent 9 kt del Nord-Est
Visibilitat 10 km o més
Escasses núvols a una alçada de 2500 ft

TAF: EGFF 220458Z 2206/2306 05009KT 9999 FEW025

Observacions i pronòstics meteorològics de més de 4000 aeroports (METAR i TAF).

Les estacions disponibles són els punts grocs i vermells al mapa.

Posi el ratolí al punt desitjat per veure el nom de l'estació.

Feu clic per veure les observacions i els pronòstics meteorològics.

Per canviar el mapa: feu clic els botons verds amb una creu de color negre per apropar; al botó verd amb un guió per allunyar la imatge; o en les fletxes verdes per a mapes adjacents.


METAR-TAF: